sensor_id;sensor_type;location;lat;lon;timestamp;P1;durP1;ratioP1;P2;durP2;ratioP2
19854;SDS011;10088;47.946;2.532;2023-05-14T00:01:35;14.80;;;10.73;;
19854;SDS011;10088;47.946;2.532;2023-05-14T00:04:01;13.20;;;10.47;;
19854;SDS011;10088;47.946;2.532;2023-05-14T00:06:26;10.97;;;9.83;;
19854;SDS011;10088;47.946;2.532;2023-05-14T00:08:52;11.23;;;9.57;;
19854;SDS011;10088;47.946;2.532;2023-05-14T00:11:17;12.00;;;9.33;;
19854;SDS011;10088;47.946;2.532;2023-05-14T00:13:42;12.90;;;9.57;;
19854;SDS011;10088;47.946;2.532;2023-05-14T00:16:07;12.60;;;9.87;;
19854;SDS011;10088;47.946;2.532;2023-05-14T00:18:33;11.27;;;10.17;;
19854;SDS011;10088;47.946;2.532;2023-05-14T00:20:58;11.00;;;9.83;;
19854;SDS011;10088;47.946;2.532;2023-05-14T00:23:23;14.63;;;10.57;;
19854;SDS011;10088;47.946;2.532;2023-05-14T00:25:48;13.60;;;11.20;;
19854;SDS011;10088;47.946;2.532;2023-05-14T00:28:14;16.97;;;11.80;;
19854;SDS011;10088;47.946;2.532;2023-05-14T00:30:39;13.53;;;10.53;;
19854;SDS011;10088;47.946;2.532;2023-05-14T00:33:05;16.10;;;12.43;;
19854;SDS011;10088;47.946;2.532;2023-05-14T00:35:30;19.23;;;13.23;;
19854;SDS011;10088;47.946;2.532;2023-05-14T00:37:55;18.90;;;13.77;;
19854;SDS011;10088;47.946;2.532;2023-05-14T00:40:22;14.90;;;11.43;;
19854;SDS011;10088;47.946;2.532;2023-05-14T00:42:49;13.67;;;12.20;;
19854;SDS011;10088;47.946;2.532;2023-05-14T00:45:14;18.40;;;13.20;;
19854;SDS011;10088;47.946;2.532;2023-05-14T00:47:40;17.53;;;13.97;;
19854;SDS011;10088;47.946;2.532;2023-05-14T00:50:05;19.33;;;13.97;;
19854;SDS011;10088;47.946;2.532;2023-05-14T00:52:30;19.33;;;13.63;;
19854;SDS011;10088;47.946;2.532;2023-05-14T00:54:56;18.10;;;14.47;;
19854;SDS011;10088;47.946;2.532;2023-05-14T00:57:22;22.33;;;14.87;;
19854;SDS011;10088;47.946;2.532;2023-05-14T00:59:48;22.83;;;15.60;;
19854;SDS011;10088;47.946;2.532;2023-05-14T01:02:13;20.40;;;15.27;;
19854;SDS011;10088;47.946;2.532;2023-05-14T01:04:38;24.80;;;15.20;;
19854;SDS011;10088;47.946;2.532;2023-05-14T01:07:21;21.00;;;14.77;;
19854;SDS011;10088;47.946;2.532;2023-05-14T01:09:54;28.80;;;15.30;;
19854;SDS011;10088;47.946;2.532;2023-05-14T01:15:29;24.13;;;15.80;;
19854;SDS011;10088;47.946;2.532;2023-05-14T01:17:37;24.07;;;16.33;;
19854;SDS011;10088;47.946;2.532;2023-05-14T01:20:03;24.43;;;15.90;;
19854;SDS011;10088;47.946;2.532;2023-05-14T01:22:28;22.00;;;16.57;;
19854;SDS011;10088;47.946;2.532;2023-05-14T01:24:53;21.27;;;16.57;;
19854;SDS011;10088;47.946;2.532;2023-05-14T01:29:48;22.60;;;16.63;;
19854;SDS011;10088;47.946;2.532;2023-05-14T01:32:13;19.83;;;16.90;;
19854;SDS011;10088;47.946;2.532;2023-05-14T01:34:39;22.40;;;15.97;;
19854;SDS011;10088;47.946;2.532;2023-05-14T01:37:05;20.77;;;15.50;;
19854;SDS011;10088;47.946;2.532;2023-05-14T01:39:31;21.20;;;16.50;;
19854;SDS011;10088;47.946;2.532;2023-05-14T01:41:57;19.57;;;15.60;;
19854;SDS011;10088;47.946;2.532;2023-05-14T01:44:23;23.47;;;16.90;;
19854;SDS011;10088;47.946;2.532;2023-05-14T01:46:49;29.80;;;19.93;;
19854;SDS011;10088;47.946;2.532;2023-05-14T01:49:14;24.93;;;18.47;;
19854;SDS011;10088;47.946;2.532;2023-05-14T01:51:42;24.97;;;17.70;;
19854;SDS011;10088;47.946;2.532;2023-05-14T01:54:07;25.47;;;17.07;;
19854;SDS011;10088;47.946;2.532;2023-05-14T01:56:32;27.90;;;18.10;;
19854;SDS011;10088;47.946;2.532;2023-05-14T01:58:57;29.10;;;18.57;;
19854;SDS011;10088;47.946;2.532;2023-05-14T02:01:23;28.17;;;18.17;;
19854;SDS011;10088;47.946;2.532;2023-05-14T02:03:50;24.67;;;18.57;;
19854;SDS011;10088;47.946;2.532;2023-05-14T02:06:15;23.77;;;17.63;;
19854;SDS011;10088;47.946;2.532;2023-05-14T02:08:40;29.97;;;18.43;;
19854;SDS011;10088;47.946;2.532;2023-05-14T02:11:05;26.87;;;17.87;;
19854;SDS011;10088;47.946;2.532;2023-05-14T02:13:30;26.53;;;17.60;;
19854;SDS011;10088;47.946;2.532;2023-05-14T02:15:56;29.23;;;19.60;;
19854;SDS011;10088;47.946;2.532;2023-05-14T02:18:21;25.77;;;20.07;;
19854;SDS011;10088;47.946;2.532;2023-05-14T02:20:46;38.13;;;20.90;;
19854;SDS011;10088;47.946;2.532;2023-05-14T02:23:11;33.23;;;22.13;;
19854;SDS011;10088;47.946;2.532;2023-05-14T02:25:37;37.80;;;25.50;;
19854;SDS011;10088;47.946;2.532;2023-05-14T02:28:02;41.37;;;25.60;;
19854;SDS011;10088;47.946;2.532;2023-05-14T02:30:27;47.87;;;27.10;;
19854;SDS011;10088;47.946;2.532;2023-05-14T02:32:54;59.27;;;28.93;;
19854;SDS011;10088;47.946;2.532;2023-05-14T02:35:19;49.27;;;30.93;;
19854;SDS011;10088;47.946;2.532;2023-05-14T02:37:44;72.00;;;34.63;;
19854;SDS011;10088;47.946;2.532;2023-05-14T02:40:10;58.60;;;34.13;;
19854;SDS011;10088;47.946;2.532;2023-05-14T02:42:35;58.73;;;33.27;;
19854;SDS011;10088;47.946;2.532;2023-05-14T02:45:00;96.40;;;38.27;;
19854;SDS011;10088;47.946;2.532;2023-05-14T02:47:25;70.90;;;35.87;;
19854;SDS011;10088;47.946;2.532;2023-05-14T02:49:51;72.00;;;35.30;;
19854;SDS011;10088;47.946;2.532;2023-05-14T02:52:16;63.10;;;36.20;;
19854;SDS011;10088;47.946;2.532;2023-05-14T02:54:41;62.53;;;37.37;;
19854;SDS011;10088;47.946;2.532;2023-05-14T02:57:07;67.97;;;38.27;;
19854;SDS011;10088;47.946;2.532;2023-05-14T02:59:32;69.33;;;37.53;;
19854;SDS011;10088;47.946;2.532;2023-05-14T03:01:57;69.03;;;35.87;;
19854;SDS011;10088;47.946;2.532;2023-05-14T03:04:22;68.30;;;37.13;;
19854;SDS011;10088;47.946;2.532;2023-05-14T03:06:48;71.33;;;36.93;;
19854;SDS011;10088;47.946;2.532;2023-05-14T03:09:13;65.97;;;34.83;;
19854;SDS011;10088;47.946;2.532;2023-05-14T03:11:38;79.10;;;37.17;;
19854;SDS011;10088;47.946;2.532;2023-05-14T03:14:03;57.27;;;36.70;;
19854;SDS011;10088;47.946;2.532;2023-05-14T03:16:29;61.57;;;34.03;;
19854;SDS011;10088;47.946;2.532;2023-05-14T03:18:54;71.20;;;35.80;;
19854;SDS011;10088;47.946;2.532;2023-05-14T03:21:19;69.27;;;35.60;;
19854;SDS011;10088;47.946;2.532;2023-05-14T03:23:44;60.23;;;34.67;;
19854;SDS011;10088;47.946;2.532;2023-05-14T03:26:10;52.53;;;33.90;;
19854;SDS011;10088;47.946;2.532;2023-05-14T03:28:35;54.63;;;34.20;;
19854;SDS011;10088;47.946;2.532;2023-05-14T03:31:00;57.53;;;34.80;;
19854;SDS011;10088;47.946;2.532;2023-05-14T03:33:26;56.07;;;34.87;;
19854;SDS011;10088;47.946;2.532;2023-05-14T03:35:51;71.70;;;36.40;;
19854;SDS011;10088;47.946;2.532;2023-05-14T03:38:16;58.20;;;34.93;;
19854;SDS011;10088;47.946;2.532;2023-05-14T03:40:42;53.73;;;35.07;;
19854;SDS011;10088;47.946;2.532;2023-05-14T03:43:08;62.17;;;36.03;;
19854;SDS011;10088;47.946;2.532;2023-05-14T03:45:33;65.30;;;35.27;;
19854;SDS011;10088;47.946;2.532;2023-05-14T03:47:59;58.57;;;35.80;;
19854;SDS011;10088;47.946;2.532;2023-05-14T03:50:24;59.30;;;33.47;;
19854;SDS011;10088;47.946;2.532;2023-05-14T03:52:50;59.83;;;36.10;;
19854;SDS011;10088;47.946;2.532;2023-05-14T03:55:16;52.03;;;35.57;;
19854;SDS011;10088;47.946;2.532;2023-05-14T03:57:41;57.50;;;33.50;;
19854;SDS011;10088;47.946;2.532;2023-05-14T04:00:07;54.90;;;35.03;;
19854;SDS011;10088;47.946;2.532;2023-05-14T04:02:32;52.77;;;33.63;;
19854;SDS011;10088;47.946;2.532;2023-05-14T04:04:57;57.10;;;35.10;;
19854;SDS011;10088;47.946;2.532;2023-05-14T04:07:23;62.47;;;37.03;;
19854;SDS011;10088;47.946;2.532;2023-05-14T04:09:48;48.63;;;35.23;;
19854;SDS011;10088;47.946;2.532;2023-05-14T04:12:13;53.17;;;35.37;;
19854;SDS011;10088;47.946;2.532;2023-05-14T04:14:40;55.40;;;36.53;;
19854;SDS011;10088;47.946;2.532;2023-05-14T04:17:05;54.50;;;33.90;;
19854;SDS011;10088;47.946;2.532;2023-05-14T04:19:31;48.97;;;34.27;;
19854;SDS011;10088;47.946;2.532;2023-05-14T04:21:56;57.70;;;34.97;;
19854;SDS011;10088;47.946;2.532;2023-05-14T04:24:21;56.37;;;34.50;;
19854;SDS011;10088;47.946;2.532;2023-05-14T04:26:46;50.13;;;34.47;;
19854;SDS011;10088;47.946;2.532;2023-05-14T04:29:11;54.03;;;34.17;;
19854;SDS011;10088;47.946;2.532;2023-05-14T04:31:37;54.77;;;34.87;;
19854;SDS011;10088;47.946;2.532;2023-05-14T04:34:02;56.03;;;33.60;;
19854;SDS011;10088;47.946;2.532;2023-05-14T04:36:27;57.23;;;35.20;;
19854;SDS011;10088;47.946;2.532;2023-05-14T04:38:53;48.67;;;32.37;;
19854;SDS011;10088;47.946;2.532;2023-05-14T04:41:18;53.40;;;34.87;;
19854;SDS011;10088;47.946;2.532;2023-05-14T04:43:43;52.40;;;33.40;;
19854;SDS011;10088;47.946;2.532;2023-05-14T04:46:08;53.57;;;33.30;;
19854;SDS011;10088;47.946;2.532;2023-05-14T04:48:34;50.30;;;33.30;;
19854;SDS011;10088;47.946;2.532;2023-05-14T04:50:59;47.93;;;33.53;;
19854;SDS011;10088;47.946;2.532;2023-05-14T04:53:24;50.37;;;32.67;;
19854;SDS011;10088;47.946;2.532;2023-05-14T04:55:50;47.17;;;32.10;;
19854;SDS011;10088;47.946;2.532;2023-05-14T04:58:15;47.10;;;32.27;;
19854;SDS011;10088;47.946;2.532;2023-05-14T05:00:41;54.30;;;32.23;;
19854;SDS011;10088;47.946;2.532;2023-05-14T05:03:06;45.50;;;31.33;;
19854;SDS011;10088;47.946;2.532;2023-05-14T05:05:31;46.20;;;32.73;;
19854;SDS011;10088;47.946;2.532;2023-05-14T05:07:57;42.13;;;31.90;;
19854;SDS011;10088;47.946;2.532;2023-05-14T05:10:22;41.57;;;30.90;;
19854;SDS011;10088;47.946;2.532;2023-05-14T05:12:47;43.13;;;30.27;;
19854;SDS011;10088;47.946;2.532;2023-05-14T05:15:12;55.47;;;32.93;;
19854;SDS011;10088;47.946;2.532;2023-05-14T05:17:38;39.37;;;31.70;;
19854;SDS011;10088;47.946;2.532;2023-05-14T05:20:03;45.57;;;30.67;;
19854;SDS011;10088;47.946;2.532;2023-05-14T05:22:30;45.37;;;31.87;;
19854;SDS011;10088;47.946;2.532;2023-05-14T05:24:55;50.80;;;32.20;;
19854;SDS011;10088;47.946;2.532;2023-05-14T05:27:21;41.67;;;30.90;;
19854;SDS011;10088;47.946;2.532;2023-05-14T05:29:46;45.87;;;30.93;;
19854;SDS011;10088;47.946;2.532;2023-05-14T05:32:12;45.30;;;31.10;;
19854;SDS011;10088;47.946;2.532;2023-05-14T05:34:37;43.73;;;32.13;;
19854;SDS011;10088;47.946;2.532;2023-05-14T05:37:02;42.27;;;31.30;;
19854;SDS011;10088;47.946;2.532;2023-05-14T05:39:29;46.07;;;32.03;;
19854;SDS011;10088;47.946;2.532;2023-05-14T05:41:58;43.67;;;32.53;;
19854;SDS011;10088;47.946;2.532;2023-05-14T05:44:24;45.00;;;30.93;;
19854;SDS011;10088;47.946;2.532;2023-05-14T05:46:49;42.37;;;30.70;;
19854;SDS011;10088;47.946;2.532;2023-05-14T05:49:14;45.67;;;31.80;;
19854;SDS011;10088;47.946;2.532;2023-05-14T05:51:40;41.57;;;31.50;;
19854;SDS011;10088;47.946;2.532;2023-05-14T05:54:05;43.27;;;31.33;;
19854;SDS011;10088;47.946;2.532;2023-05-14T05:56:30;39.63;;;30.23;;
19854;SDS011;10088;47.946;2.532;2023-05-14T05:58:55;45.27;;;30.60;;
19854;SDS011;10088;47.946;2.532;2023-05-14T06:01:21;47.30;;;29.47;;
19854;SDS011;10088;47.946;2.532;2023-05-14T06:03:46;41.80;;;29.83;;
19854;SDS011;10088;47.946;2.532;2023-05-14T06:06:12;49.90;;;32.30;;
19854;SDS011;10088;47.946;2.532;2023-05-14T06:08:37;43.10;;;31.47;;
19854;SDS011;10088;47.946;2.532;2023-05-14T06:11:02;47.17;;;30.87;;
19854;SDS011;10088;47.946;2.532;2023-05-14T06:13:28;37.53;;;30.07;;
19854;SDS011;10088;47.946;2.532;2023-05-14T06:15:53;44.00;;;31.73;;
19854;SDS011;10088;47.946;2.532;2023-05-14T06:18:18;39.53;;;30.23;;
19854;SDS011;10088;47.946;2.532;2023-05-14T06:20:44;43.50;;;33.80;;
19854;SDS011;10088;47.946;2.532;2023-05-14T06:23:09;39.53;;;31.20;;
19854;SDS011;10088;47.946;2.532;2023-05-14T06:25:36;40.83;;;31.93;;
19854;SDS011;10088;47.946;2.532;2023-05-14T06:28:01;42.67;;;32.40;;
19854;SDS011;10088;47.946;2.532;2023-05-14T06:30:26;44.93;;;31.17;;
19854;SDS011;10088;47.946;2.532;2023-05-14T06:32:52;38.37;;;29.00;;
19854;SDS011;10088;47.946;2.532;2023-05-14T06:35:17;37.97;;;29.97;;
19854;SDS011;10088;47.946;2.532;2023-05-14T06:37:43;41.90;;;31.13;;
19854;SDS011;10088;47.946;2.532;2023-05-14T06:40:08;41.67;;;30.27;;
19854;SDS011;10088;47.946;2.532;2023-05-14T06:42:34;37.67;;;29.07;;
19854;SDS011;10088;47.946;2.532;2023-05-14T06:45:00;38.60;;;29.30;;
19854;SDS011;10088;47.946;2.532;2023-05-14T06:47:25;41.43;;;29.47;;
19854;SDS011;10088;47.946;2.532;2023-05-14T06:49:50;39.40;;;28.90;;
19854;SDS011;10088;47.946;2.532;2023-05-14T06:52:15;38.70;;;30.43;;
19854;SDS011;10088;47.946;2.532;2023-05-14T06:54:41;36.13;;;29.53;;
19854;SDS011;10088;47.946;2.532;2023-05-14T06:57:06;36.63;;;28.83;;
19854;SDS011;10088;47.946;2.532;2023-05-14T06:59:31;41.80;;;29.43;;
19854;SDS011;10088;47.946;2.532;2023-05-14T07:01:57;42.90;;;28.17;;
19854;SDS011;10088;47.946;2.532;2023-05-14T07:04:22;38.47;;;29.10;;
19854;SDS011;10088;47.946;2.532;2023-05-14T07:06:47;35.53;;;27.63;;
19854;SDS011;10088;47.946;2.532;2023-05-14T07:09:13;38.33;;;29.17;;
19854;SDS011;10088;47.946;2.532;2023-05-14T07:11:38;35.20;;;27.57;;
19854;SDS011;10088;47.946;2.532;2023-05-14T07:14:03;36.60;;;27.33;;
19854;SDS011;10088;47.946;2.532;2023-05-14T07:16:28;40.00;;;28.67;;
19854;SDS011;10088;47.946;2.532;2023-05-14T07:18:54;36.00;;;27.43;;
19854;SDS011;10088;47.946;2.532;2023-05-14T07:21:19;34.97;;;26.57;;
19854;SDS011;10088;47.946;2.532;2023-05-14T07:23:44;36.50;;;27.07;;
19854;SDS011;10088;47.946;2.532;2023-05-14T07:26:10;36.07;;;26.50;;
19854;SDS011;10088;47.946;2.532;2023-05-14T07:28:35;34.50;;;27.87;;
19854;SDS011;10088;47.946;2.532;2023-05-14T07:31:00;34.00;;;27.80;;
19854;SDS011;10088;47.946;2.532;2023-05-14T07:33:25;34.90;;;26.50;;
19854;SDS011;10088;47.946;2.532;2023-05-14T07:35:51;40.10;;;26.67;;
19854;SDS011;10088;47.946;2.532;2023-05-14T07:38:17;32.33;;;24.80;;
19854;SDS011;10088;47.946;2.532;2023-05-14T07:40:42;33.87;;;26.80;;
19854;SDS011;10088;47.946;2.532;2023-05-14T07:43:08;36.73;;;27.07;;
19854;SDS011;10088;47.946;2.532;2023-05-14T07:45:35;32.80;;;26.87;;
19854;SDS011;10088;47.946;2.532;2023-05-14T07:48:00;33.37;;;27.63;;
19854;SDS011;10088;47.946;2.532;2023-05-14T07:50:26;32.63;;;26.17;;
19854;SDS011;10088;47.946;2.532;2023-05-14T07:52:51;33.37;;;25.43;;
19854;SDS011;10088;47.946;2.532;2023-05-14T07:55:16;31.93;;;26.87;;
19854;SDS011;10088;47.946;2.532;2023-05-14T07:57:41;35.83;;;29.27;;
19854;SDS011;10088;47.946;2.532;2023-05-14T08:00:07;41.50;;;28.93;;
19854;SDS011;10088;47.946;2.532;2023-05-14T08:02:32;40.00;;;28.47;;
19854;SDS011;10088;47.946;2.532;2023-05-14T08:04:58;35.47;;;28.83;;
19854;SDS011;10088;47.946;2.532;2023-05-14T08:07:23;37.40;;;27.37;;
19854;SDS011;10088;47.946;2.532;2023-05-14T08:09:48;41.00;;;27.80;;
19854;SDS011;10088;47.946;2.532;2023-05-14T08:12:14;34.27;;;26.97;;
19854;SDS011;10088;47.946;2.532;2023-05-14T08:14:40;38.47;;;27.57;;
19854;SDS011;10088;47.946;2.532;2023-05-14T08:17:05;36.50;;;28.63;;
19854;SDS011;10088;47.946;2.532;2023-05-14T08:19:31;35.97;;;28.50;;
19854;SDS011;10088;47.946;2.532;2023-05-14T08:21:56;34.53;;;26.83;;
19854;SDS011;10088;47.946;2.532;2023-05-14T08:24:22;37.77;;;27.53;;
19854;SDS011;10088;47.946;2.532;2023-05-14T08:26:47;35.87;;;27.80;;
19854;SDS011;10088;47.946;2.532;2023-05-14T08:29:12;38.40;;;27.50;;
19854;SDS011;10088;47.946;2.532;2023-05-14T08:31:37;31.83;;;26.17;;
19854;SDS011;10088;47.946;2.532;2023-05-14T08:34:03;29.60;;;25.23;;
19854;SDS011;10088;47.946;2.532;2023-05-14T08:36:28;30.57;;;24.63;;
19854;SDS011;10088;47.946;2.532;2023-05-14T08:38:53;26.17;;;23.23;;
19854;SDS011;10088;47.946;2.532;2023-05-14T08:41:19;28.13;;;22.97;;
19854;SDS011;10088;47.946;2.532;2023-05-14T08:46:29;38.07;;;27.50;;
19854;SDS011;10088;47.946;2.532;2023-05-14T08:48:55;29.97;;;24.90;;
19854;SDS011;10088;47.946;2.532;2023-05-14T08:51:22;30.20;;;25.73;;
19854;SDS011;10088;47.946;2.532;2023-05-14T08:53:48;29.13;;;23.53;;
19854;SDS011;10088;47.946;2.532;2023-05-14T08:56:13;32.13;;;24.43;;
19854;SDS011;10088;47.946;2.532;2023-05-14T08:58:40;30.27;;;23.30;;
19854;SDS011;10088;47.946;2.532;2023-05-14T09:01:05;28.60;;;23.37;;
19854;SDS011;10088;47.946;2.532;2023-05-14T09:03:30;30.03;;;22.30;;
19854;SDS011;10088;47.946;2.532;2023-05-14T09:05:56;27.73;;;22.97;;
19854;SDS011;10088;47.946;2.532;2023-05-14T09:08:22;27.93;;;22.30;;
19854;SDS011;10088;47.946;2.532;2023-05-14T09:10:47;25.03;;;21.73;;
19854;SDS011;10088;47.946;2.532;2023-05-14T09:13:12;30.43;;;22.80;;
19854;SDS011;10088;47.946;2.532;2023-05-14T09:15:38;32.83;;;24.00;;
19854;SDS011;10088;47.946;2.532;2023-05-14T09:18:05;32.43;;;26.27;;
19854;SDS011;10088;47.946;2.532;2023-05-14T09:20:30;30.93;;;26.00;;
19854;SDS011;10088;47.946;2.532;2023-05-14T09:22:56;34.83;;;25.17;;
19854;SDS011;10088;47.946;2.532;2023-05-14T09:25:27;29.70;;;24.97;;
19854;SDS011;10088;47.946;2.532;2023-05-14T09:27:55;31.83;;;25.50;;
19854;SDS011;10088;47.946;2.532;2023-05-14T09:30:20;34.13;;;26.80;;
19854;SDS011;10088;47.946;2.532;2023-05-14T09:32:46;30.90;;;24.47;;
19854;SDS011;10088;47.946;2.532;2023-05-14T09:35:14;34.40;;;25.10;;
19854;SDS011;10088;47.946;2.532;2023-05-14T09:37:41;32.33;;;24.30;;
19854;SDS011;10088;47.946;2.532;2023-05-14T09:40:07;30.20;;;23.93;;
19854;SDS011;10088;47.946;2.532;2023-05-14T09:42:33;32.07;;;24.00;;
19854;SDS011;10088;47.946;2.532;2023-05-14T09:44:58;29.00;;;24.53;;
19854;SDS011;10088;47.946;2.532;2023-05-14T09:47:24;31.13;;;25.17;;
19854;SDS011;10088;47.946;2.532;2023-05-14T09:49:49;29.27;;;24.63;;
19854;SDS011;10088;47.946;2.532;2023-05-14T09:52:17;31.90;;;23.40;;
19854;SDS011;10088;47.946;2.532;2023-05-14T09:54:42;30.60;;;23.03;;
19854;SDS011;10088;47.946;2.532;2023-05-14T09:57:08;28.27;;;22.37;;
19854;SDS011;10088;47.946;2.532;2023-05-14T09:59:33;28.10;;;22.67;;
19854;SDS011;10088;47.946;2.532;2023-05-14T10:01:58;28.83;;;22.60;;
19854;SDS011;10088;47.946;2.532;2023-05-14T10:04:24;28.67;;;23.00;;
19854;SDS011;10088;47.946;2.532;2023-05-14T10:06:49;29.40;;;24.53;;
19854;SDS011;10088;47.946;2.532;2023-05-14T10:09:15;30.53;;;23.80;;
19854;SDS011;10088;47.946;2.532;2023-05-14T10:11:42;30.80;;;24.43;;
19854;SDS011;10088;47.946;2.532;2023-05-14T10:14:18;27.77;;;24.43;;
19854;SDS011;10088;47.946;2.532;2023-05-14T10:16:48;27.57;;;23.37;;
19854;SDS011;10088;47.946;2.532;2023-05-14T10:19:14;31.47;;;23.80;;
19854;SDS011;10088;47.946;2.532;2023-05-14T10:21:40;29.40;;;23.67;;
19854;SDS011;10088;47.946;2.532;2023-05-14T10:24:07;28.90;;;24.03;;
19854;SDS011;10088;47.946;2.532;2023-05-14T10:26:34;28.80;;;23.73;;
19854;SDS011;10088;47.946;2.532;2023-05-14T10:29:03;28.83;;;22.77;;
19854;SDS011;10088;47.946;2.532;2023-05-14T10:34:34;31.73;;;25.03;;
19854;SDS011;10088;47.946;2.532;2023-05-14T10:37:02;31.93;;;25.63;;
19854;SDS011;10088;47.946;2.532;2023-05-14T10:42:20;33.87;;;25.30;;
19854;SDS011;10088;47.946;2.532;2023-05-14T10:44:52;30.33;;;24.63;;
19854;SDS011;10088;47.946;2.532;2023-05-14T10:47:20;27.73;;;24.43;;
19854;SDS011;10088;47.946;2.532;2023-05-14T10:49:45;33.60;;;26.57;;
19854;SDS011;10088;47.946;2.532;2023-05-14T10:52:14;29.30;;;25.10;;
19854;SDS011;10088;47.946;2.532;2023-05-14T10:54:40;29.10;;;26.00;;
19854;SDS011;10088;47.946;2.532;2023-05-14T10:57:10;28.63;;;25.03;;
19854;SDS011;10088;47.946;2.532;2023-05-14T10:59:35;33.80;;;25.83;;
19854;SDS011;10088;47.946;2.532;2023-05-14T11:02:03;27.57;;;23.80;;
19854;SDS011;10088;47.946;2.532;2023-05-14T11:04:30;31.67;;;24.57;;
19854;SDS011;10088;47.946;2.532;2023-05-14T11:06:55;34.47;;;26.63;;
19854;SDS011;10088;47.946;2.532;2023-05-14T11:09:21;31.00;;;25.80;;
19854;SDS011;10088;47.946;2.532;2023-05-14T11:11:47;27.83;;;24.80;;
19854;SDS011;10088;47.946;2.532;2023-05-14T11:14:13;31.40;;;25.50;;
19854;SDS011;10088;47.946;2.532;2023-05-14T11:16:38;30.17;;;26.37;;
19854;SDS011;10088;47.946;2.532;2023-05-14T11:19:05;30.87;;;25.70;;
19854;SDS011;10088;47.946;2.532;2023-05-14T11:21:30;28.80;;;24.97;;
19854;SDS011;10088;47.946;2.532;2023-05-14T11:23:56;29.17;;;24.17;;
19854;SDS011;10088;47.946;2.532;2023-05-14T11:26:23;31.20;;;24.93;;
19854;SDS011;10088;47.946;2.532;2023-05-14T11:28:48;35.83;;;26.03;;
19854;SDS011;10088;47.946;2.532;2023-05-14T11:31:13;33.80;;;26.30;;
19854;SDS011;10088;47.946;2.532;2023-05-14T11:33:39;31.33;;;27.37;;
19854;SDS011;10088;47.946;2.532;2023-05-14T11:36:04;31.27;;;26.47;;
19854;SDS011;10088;47.946;2.532;2023-05-14T11:38:30;32.07;;;26.93;;
19854;SDS011;10088;47.946;2.532;2023-05-14T11:40:55;35.80;;;27.30;;
19854;SDS011;10088;47.946;2.532;2023-05-14T11:43:21;39.63;;;28.93;;
19854;SDS011;10088;47.946;2.532;2023-05-14T11:45:50;34.13;;;26.07;;
19854;SDS011;10088;47.946;2.532;2023-05-14T11:48:16;34.00;;;28.00;;
19854;SDS011;10088;47.946;2.532;2023-05-14T11:50:49;32.77;;;26.40;;
19854;SDS011;10088;47.946;2.532;2023-05-14T11:53:16;31.77;;;26.87;;
19854;SDS011;10088;47.946;2.532;2023-05-14T11:55:41;31.33;;;26.10;;
19854;SDS011;10088;47.946;2.532;2023-05-14T11:58:06;37.47;;;27.30;;
19854;SDS011;10088;47.946;2.532;2023-05-14T12:00:31;34.57;;;27.83;;
19854;SDS011;10088;47.946;2.532;2023-05-14T12:02:58;37.07;;;28.37;;
19854;SDS011;10088;47.946;2.532;2023-05-14T12:05:23;33.57;;;26.90;;
19854;SDS011;10088;47.946;2.532;2023-05-14T12:07:49;34.40;;;26.63;;
19854;SDS011;10088;47.946;2.532;2023-05-14T12:10:14;32.87;;;27.10;;
19854;SDS011;10088;47.946;2.532;2023-05-14T12:12:39;32.40;;;26.10;;
19854;SDS011;10088;47.946;2.532;2023-05-14T12:15:11;35.23;;;25.53;;
19854;SDS011;10088;47.946;2.532;2023-05-14T12:17:37;35.67;;;25.67;;
19854;SDS011;10088;47.946;2.532;2023-05-14T12:20:03;28.30;;;25.10;;
19854;SDS011;10088;47.946;2.532;2023-05-14T12:22:29;30.47;;;25.23;;
19854;SDS011;10088;47.946;2.532;2023-05-14T12:24:55;32.40;;;25.23;;
19854;SDS011;10088;47.946;2.532;2023-05-14T12:27:22;31.60;;;25.83;;
19854;SDS011;10088;47.946;2.532;2023-05-14T12:29:48;31.20;;;24.77;;
19854;SDS011;10088;47.946;2.532;2023-05-14T12:32:13;34.33;;;25.53;;
19854;SDS011;10088;47.946;2.532;2023-05-14T12:34:39;31.87;;;26.00;;
19854;SDS011;10088;47.946;2.532;2023-05-14T12:37:05;32.03;;;24.73;;
19854;SDS011;10088;47.946;2.532;2023-05-14T12:39:31;32.20;;;25.23;;
19854;SDS011;10088;47.946;2.532;2023-05-14T12:41:57;33.03;;;26.63;;
19854;SDS011;10088;47.946;2.532;2023-05-14T12:44:22;33.53;;;27.17;;
19854;SDS011;10088;47.946;2.532;2023-05-14T12:46:47;35.13;;;28.57;;
19854;SDS011;10088;47.946;2.532;2023-05-14T12:49:13;37.70;;;28.80;;
19854;SDS011;10088;47.946;2.532;2023-05-14T12:51:38;38.10;;;28.47;;
19854;SDS011;10088;47.946;2.532;2023-05-14T12:54:03;37.57;;;29.33;;
19854;SDS011;10088;47.946;2.532;2023-05-14T12:56:28;33.83;;;28.77;;
19854;SDS011;10088;47.946;2.532;2023-05-14T12:58:55;36.40;;;28.87;;
19854;SDS011;10088;47.946;2.532;2023-05-14T13:01:21;39.17;;;29.37;;
19854;SDS011;10088;47.946;2.532;2023-05-14T13:03:46;36.30;;;28.97;;
19854;SDS011;10088;47.946;2.532;2023-05-14T13:06:11;37.67;;;28.40;;
19854;SDS011;10088;47.946;2.532;2023-05-14T13:08:36;41.17;;;29.80;;
19854;SDS011;10088;47.946;2.532;2023-05-14T13:11:02;38.73;;;29.17;;
19854;SDS011;10088;47.946;2.532;2023-05-14T13:13:27;39.07;;;29.33;;
19854;SDS011;10088;47.946;2.532;2023-05-14T13:15:52;42.47;;;28.80;;
19854;SDS011;10088;47.946;2.532;2023-05-14T13:18:18;37.17;;;28.23;;
19854;SDS011;10088;47.946;2.532;2023-05-14T13:20:44;34.27;;;27.03;;
19854;SDS011;10088;47.946;2.532;2023-05-14T13:23:09;34.23;;;26.23;;
19854;SDS011;10088;47.946;2.532;2023-05-14T13:25:34;32.97;;;26.17;;
19854;SDS011;10088;47.946;2.532;2023-05-14T13:28:00;34.60;;;27.30;;
19854;SDS011;10088;47.946;2.532;2023-05-14T13:30:25;34.10;;;26.93;;
19854;SDS011;10088;47.946;2.532;2023-05-14T13:32:50;31.97;;;27.10;;
19854;SDS011;10088;47.946;2.532;2023-05-14T13:35:16;33.63;;;26.83;;
19854;SDS011;10088;47.946;2.532;2023-05-14T13:37:41;31.87;;;25.03;;
19854;SDS011;10088;47.946;2.532;2023-05-14T13:40:07;31.03;;;26.00;;
19854;SDS011;10088;47.946;2.532;2023-05-14T13:42:32;33.90;;;27.63;;
19854;SDS011;10088;47.946;2.532;2023-05-14T13:44:58;33.20;;;26.57;;
19854;SDS011;10088;47.946;2.532;2023-05-14T13:47:23;35.20;;;26.27;;
19854;SDS011;10088;47.946;2.532;2023-05-14T13:49:49;32.83;;;26.93;;
19854;SDS011;10088;47.946;2.532;2023-05-14T13:52:14;37.17;;;26.03;;
19854;SDS011;10088;47.946;2.532;2023-05-14T13:54:40;33.80;;;25.43;;
19854;SDS011;10088;47.946;2.532;2023-05-14T13:57:05;33.23;;;25.47;;
19854;SDS011;10088;47.946;2.532;2023-05-14T13:59:31;31.27;;;26.33;;
19854;SDS011;10088;47.946;2.532;2023-05-14T14:01:56;29.73;;;25.27;;
19854;SDS011;10088;47.946;2.532;2023-05-14T14:04:21;28.10;;;24.10;;
19854;SDS011;10088;47.946;2.532;2023-05-14T14:06:48;27.60;;;21.83;;
19854;SDS011;10088;47.946;2.532;2023-05-14T14:09:13;29.70;;;23.30;;
19854;SDS011;10088;47.946;2.532;2023-05-14T14:11:39;25.10;;;21.43;;
19854;SDS011;10088;47.946;2.532;2023-05-14T14:14:05;27.50;;;23.33;;
19854;SDS011;10088;47.946;2.532;2023-05-14T14:16:30;25.00;;;21.60;;
19854;SDS011;10088;47.946;2.532;2023-05-14T14:18:55;27.73;;;21.40;;
19854;SDS011;10088;47.946;2.532;2023-05-14T14:21:21;25.00;;;22.30;;
19854;SDS011;10088;47.946;2.532;2023-05-14T14:23:46;25.17;;;22.47;;
19854;SDS011;10088;47.946;2.532;2023-05-14T14:26:12;24.13;;;21.37;;